sensor_id;sensor_type;location;lat;lon;timestamp;P1;durP1;ratioP1;P2;durP2;ratioP2
325;SDS011;150;52.352;14.058;2023-06-22T00:01:00;11.85;;;10.48;;
325;SDS011;150;52.352;14.058;2023-06-22T00:03:26;11.43;;;9.33;;
325;SDS011;150;52.352;14.058;2023-06-22T00:05:56;10.95;;;10.00;;
325;SDS011;150;52.352;14.058;2023-06-22T00:08:24;12.63;;;10.98;;
325;SDS011;150;52.352;14.058;2023-06-22T00:10:51;11.25;;;10.00;;
325;SDS011;150;52.352;14.058;2023-06-22T00:13:21;11.00;;;10.43;;
325;SDS011;150;52.352;14.058;2023-06-22T00:15:48;10.93;;;10.32;;
325;SDS011;150;52.352;14.058;2023-06-22T00:18:14;12.80;;;10.35;;
325;SDS011;150;52.352;14.058;2023-06-22T00:20:41;11.20;;;10.60;;
325;SDS011;150;52.352;14.058;2023-06-22T00:23:10;11.43;;;10.30;;
325;SDS011;150;52.352;14.058;2023-06-22T00:25:42;12.13;;;10.60;;
325;SDS011;150;52.352;14.058;2023-06-22T00:28:09;11.57;;;10.23;;
325;SDS011;150;52.352;14.058;2023-06-22T00:30:35;11.93;;;11.05;;
325;SDS011;150;52.352;14.058;2023-06-22T00:33:02;11.20;;;10.00;;
325;SDS011;150;52.352;14.058;2023-06-22T00:35:32;13.13;;;10.18;;
325;SDS011;150;52.352;14.058;2023-06-22T00:38:00;10.98;;;10.27;;
325;SDS011;150;52.352;14.058;2023-06-22T00:40:29;10.15;;;9.68;;
325;SDS011;150;52.352;14.058;2023-06-22T00:42:57;11.13;;;9.77;;
325;SDS011;150;52.352;14.058;2023-06-22T00:45:24;11.18;;;10.13;;
325;SDS011;150;52.352;14.058;2023-06-22T00:47:52;11.68;;;10.70;;
325;SDS011;150;52.352;14.058;2023-06-22T00:50:21;11.40;;;10.30;;
325;SDS011;150;52.352;14.058;2023-06-22T00:52:49;11.05;;;10.45;;
325;SDS011;150;52.352;14.058;2023-06-22T00:55:18;11.60;;;9.70;;
325;SDS011;150;52.352;14.058;2023-06-22T00:57:49;12.98;;;10.52;;
325;SDS011;150;52.352;14.058;2023-06-22T01:00:17;12.07;;;10.77;;
325;SDS011;150;52.352;14.058;2023-06-22T01:02:45;12.50;;;10.90;;
325;SDS011;150;52.352;14.058;2023-06-22T01:05:17;13.68;;;11.43;;
325;SDS011;150;52.352;14.058;2023-06-22T01:07:46;14.23;;;11.00;;
325;SDS011;150;52.352;14.058;2023-06-22T01:10:24;13.40;;;11.70;;
325;SDS011;150;52.352;14.058;2023-06-22T01:15:44;12.15;;;11.57;;
325;SDS011;150;52.352;14.058;2023-06-22T01:18:14;10.85;;;9.80;;
325;SDS011;150;52.352;14.058;2023-06-22T01:20:44;11.75;;;10.75;;
325;SDS011;150;52.352;14.058;2023-06-22T01:23:20;13.73;;;11.05;;
325;SDS011;150;52.352;14.058;2023-06-22T01:25:56;11.75;;;11.13;;
325;SDS011;150;52.352;14.058;2023-06-22T01:31:15;11.15;;;9.80;;
325;SDS011;150;52.352;14.058;2023-06-22T01:33:44;10.50;;;9.93;;
325;SDS011;150;52.352;14.058;2023-06-22T01:36:18;13.90;;;10.57;;
325;SDS011;150;52.352;14.058;2023-06-22T01:38:47;11.45;;;9.40;;
325;SDS011;150;52.352;14.058;2023-06-22T01:41:15;11.13;;;9.82;;
325;SDS011;150;52.352;14.058;2023-06-22T01:43:43;11.70;;;10.68;;
325;SDS011;150;52.352;14.058;2023-06-22T01:46:12;12.23;;;9.95;;
325;SDS011;150;52.352;14.058;2023-06-22T01:48:40;11.43;;;10.30;;
325;SDS011;150;52.352;14.058;2023-06-22T01:51:07;13.77;;;9.98;;
325;SDS011;150;52.352;14.058;2023-06-22T01:53:34;12.80;;;10.93;;
325;SDS011;150;52.352;14.058;2023-06-22T01:56:00;12.65;;;11.05;;
325;SDS011;150;52.352;14.058;2023-06-22T01:58:28;12.02;;;11.10;;
325;SDS011;150;52.352;14.058;2023-06-22T02:00:57;11.50;;;9.98;;
325;SDS011;150;52.352;14.058;2023-06-22T02:03:31;11.85;;;10.02;;
325;SDS011;150;52.352;14.058;2023-06-22T02:06:03;10.20;;;9.70;;
325;SDS011;150;52.352;14.058;2023-06-22T02:08:36;13.43;;;10.00;;
325;SDS011;150;52.352;14.058;2023-06-22T02:11:06;13.07;;;10.88;;
325;SDS011;150;52.352;14.058;2023-06-22T02:13:34;14.40;;;11.00;;
325;SDS011;150;52.352;14.058;2023-06-22T02:16:02;14.38;;;11.45;;
325;SDS011;150;52.352;14.058;2023-06-22T02:18:31;14.52;;;11.65;;
325;SDS011;150;52.352;14.058;2023-06-22T02:21:00;11.82;;;10.13;;
325;SDS011;150;52.352;14.058;2023-06-22T02:23:27;10.57;;;10.05;;
325;SDS011;150;52.352;14.058;2023-06-22T02:25:54;16.10;;;11.00;;
325;SDS011;150;52.352;14.058;2023-06-22T02:28:20;11.35;;;10.40;;
325;SDS011;150;52.352;14.058;2023-06-22T02:30:47;13.85;;;11.05;;
325;SDS011;150;52.352;14.058;2023-06-22T02:33:14;12.02;;;11.02;;
325;SDS011;150;52.352;14.058;2023-06-22T02:35:42;12.55;;;11.30;;
325;SDS011;150;52.352;14.058;2023-06-22T02:38:12;14.93;;;11.52;;
325;SDS011;150;52.352;14.058;2023-06-22T02:40:39;16.85;;;12.90;;
325;SDS011;150;52.352;14.058;2023-06-22T02:43:06;10.82;;;9.73;;
325;SDS011;150;52.352;14.058;2023-06-22T02:45:33;13.88;;;11.00;;
325;SDS011;150;52.352;14.058;2023-06-22T02:47:59;12.40;;;11.10;;
325;SDS011;150;52.352;14.058;2023-06-22T02:50:26;12.25;;;10.40;;
325;SDS011;150;52.352;14.058;2023-06-22T02:52:54;11.27;;;10.15;;
325;SDS011;150;52.352;14.058;2023-06-22T02:55:21;11.02;;;10.20;;
325;SDS011;150;52.352;14.058;2023-06-22T02:57:48;13.32;;;11.27;;
325;SDS011;150;52.352;14.058;2023-06-22T03:00:17;14.40;;;11.95;;
325;SDS011;150;52.352;14.058;2023-06-22T03:02:47;12.55;;;10.85;;
325;SDS011;150;52.352;14.058;2023-06-22T03:05:15;11.98;;;11.00;;
325;SDS011;150;52.352;14.058;2023-06-22T03:07:43;14.57;;;12.25;;
325;SDS011;150;52.352;14.058;2023-06-22T03:10:11;14.02;;;11.43;;
325;SDS011;150;52.352;14.058;2023-06-22T03:12:40;15.90;;;12.27;;
325;SDS011;150;52.352;14.058;2023-06-22T03:15:08;13.48;;;11.27;;
325;SDS011;150;52.352;14.058;2023-06-22T03:17:35;13.30;;;11.40;;
325;SDS011;150;52.352;14.058;2023-06-22T03:20:04;12.47;;;11.63;;
325;SDS011;150;52.352;14.058;2023-06-22T03:22:35;14.43;;;11.75;;
325;SDS011;150;52.352;14.058;2023-06-22T03:25:02;11.00;;;10.40;;
325;SDS011;150;52.352;14.058;2023-06-22T03:27:30;12.15;;;11.27;;
325;SDS011;150;52.352;14.058;2023-06-22T03:30:00;14.70;;;11.98;;
325;SDS011;150;52.352;14.058;2023-06-22T03:32:26;13.70;;;11.75;;
325;SDS011;150;52.352;14.058;2023-06-22T03:34:53;13.23;;;10.95;;
325;SDS011;150;52.352;14.058;2023-06-22T03:37:23;13.23;;;11.05;;
325;SDS011;150;52.352;14.058;2023-06-22T03:39:50;13.70;;;12.05;;
325;SDS011;150;52.352;14.058;2023-06-22T03:42:17;13.48;;;11.05;;
325;SDS011;150;52.352;14.058;2023-06-22T03:44:45;12.80;;;11.23;;
325;SDS011;150;52.352;14.058;2023-06-22T03:47:12;12.75;;;10.85;;
325;SDS011;150;52.352;14.058;2023-06-22T03:49:39;12.13;;;9.85;;
325;SDS011;150;52.352;14.058;2023-06-22T03:52:06;11.05;;;10.13;;
325;SDS011;150;52.352;14.058;2023-06-22T03:54:33;13.63;;;11.27;;
325;SDS011;150;52.352;14.058;2023-06-22T03:57:00;14.15;;;10.75;;
325;SDS011;150;52.352;14.058;2023-06-22T03:59:27;12.18;;;10.40;;
325;SDS011;150;52.352;14.058;2023-06-22T04:01:55;12.93;;;10.25;;
325;SDS011;150;52.352;14.058;2023-06-22T04:04:24;11.20;;;10.38;;
325;SDS011;150;52.352;14.058;2023-06-22T04:06:51;15.50;;;10.65;;
325;SDS011;150;52.352;14.058;2023-06-22T04:09:18;11.63;;;9.90;;
325;SDS011;150;52.352;14.058;2023-06-22T04:11:46;12.50;;;10.30;;
325;SDS011;150;52.352;14.058;2023-06-22T04:14:13;12.05;;;10.05;;
325;SDS011;150;52.352;14.058;2023-06-22T04:16:40;10.52;;;9.43;;
325;SDS011;150;52.352;14.058;2023-06-22T04:19:08;10.60;;;9.95;;
325;SDS011;150;52.352;14.058;2023-06-22T04:21:39;11.82;;;10.00;;
325;SDS011;150;52.352;14.058;2023-06-22T04:24:06;11.82;;;10.35;;
325;SDS011;150;52.352;14.058;2023-06-22T04:26:32;11.98;;;10.23;;
325;SDS011;150;52.352;14.058;2023-06-22T04:29:01;11.63;;;9.88;;
325;SDS011;150;52.352;14.058;2023-06-22T04:31:30;13.73;;;11.00;;
325;SDS011;150;52.352;14.058;2023-06-22T04:34:01;11.30;;;9.70;;
325;SDS011;150;52.352;14.058;2023-06-22T04:36:33;9.73;;;9.17;;
325;SDS011;150;52.352;14.058;2023-06-22T04:39:05;11.77;;;10.43;;
325;SDS011;150;52.352;14.058;2023-06-22T04:41:34;10.75;;;9.27;;
325;SDS011;150;52.352;14.058;2023-06-22T04:44:07;12.20;;;10.43;;
325;SDS011;150;52.352;14.058;2023-06-22T04:46:37;12.68;;;10.20;;
325;SDS011;150;52.352;14.058;2023-06-22T04:49:05;11.93;;;10.00;;
325;SDS011;150;52.352;14.058;2023-06-22T04:51:36;12.40;;;9.73;;
325;SDS011;150;52.352;14.058;2023-06-22T04:54:03;11.52;;;9.25;;
325;SDS011;150;52.352;14.058;2023-06-22T04:56:30;10.32;;;9.25;;
325;SDS011;150;52.352;14.058;2023-06-22T04:58:57;9.50;;;8.38;;
325;SDS011;150;52.352;14.058;2023-06-22T05:01:24;11.27;;;9.90;;
325;SDS011;150;52.352;14.058;2023-06-22T05:03:51;11.98;;;9.15;;
325;SDS011;150;52.352;14.058;2023-06-22T05:06:20;13.52;;;9.35;;
325;SDS011;150;52.352;14.058;2023-06-22T05:08:51;11.00;;;8.90;;
325;SDS011;150;52.352;14.058;2023-06-22T05:11:22;12.13;;;9.73;;
325;SDS011;150;52.352;14.058;2023-06-22T05:13:49;12.10;;;9.80;;
325;SDS011;150;52.352;14.058;2023-06-22T05:16:15;9.93;;;8.40;;
325;SDS011;150;52.352;14.058;2023-06-22T05:18:42;9.98;;;8.77;;
325;SDS011;150;52.352;14.058;2023-06-22T05:21:09;14.77;;;10.05;;
325;SDS011;150;52.352;14.058;2023-06-22T05:23:36;10.43;;;8.77;;
325;SDS011;150;52.352;14.058;2023-06-22T05:26:04;14.00;;;11.85;;
325;SDS011;150;52.352;14.058;2023-06-22T05:28:30;10.90;;;8.70;;
325;SDS011;150;52.352;14.058;2023-06-22T05:30:58;10.70;;;9.00;;
325;SDS011;150;52.352;14.058;2023-06-22T05:33:25;11.97;;;8.40;;
325;SDS011;150;52.352;14.058;2023-06-22T05:35:51;11.02;;;8.40;;
325;SDS011;150;52.352;14.058;2023-06-22T05:38:18;9.93;;;8.27;;
325;SDS011;150;52.352;14.058;2023-06-22T05:40:45;10.77;;;8.25;;
325;SDS011;150;52.352;14.058;2023-06-22T05:43:13;9.13;;;8.23;;
325;SDS011;150;52.352;14.058;2023-06-22T05:45:39;10.45;;;8.77;;
325;SDS011;150;52.352;14.058;2023-06-22T05:48:06;7.13;;;6.78;;
325;SDS011;150;52.352;14.058;2023-06-22T05:50:32;11.77;;;9.10;;
325;SDS011;150;52.352;14.058;2023-06-22T05:52:59;11.00;;;8.40;;
325;SDS011;150;52.352;14.058;2023-06-22T05:55:26;11.90;;;7.40;;
325;SDS011;150;52.352;14.058;2023-06-22T05:57:52;8.40;;;6.60;;
325;SDS011;150;52.352;14.058;2023-06-22T06:00:21;9.47;;;6.53;;
325;SDS011;150;52.352;14.058;2023-06-22T06:02:48;7.55;;;5.50;;
325;SDS011;150;52.352;14.058;2023-06-22T06:05:15;9.13;;;6.82;;
325;SDS011;150;52.352;14.058;2023-06-22T06:07:42;10.25;;;7.25;;
325;SDS011;150;52.352;14.058;2023-06-22T06:10:09;8.80;;;6.13;;
325;SDS011;150;52.352;14.058;2023-06-22T06:12:35;7.20;;;5.53;;
325;SDS011;150;52.352;14.058;2023-06-22T06:15:02;11.55;;;7.68;;
325;SDS011;150;52.352;14.058;2023-06-22T06:17:31;6.83;;;5.80;;
325;SDS011;150;52.352;14.058;2023-06-22T06:19:58;8.63;;;7.22;;
325;SDS011;150;52.352;14.058;2023-06-22T06:22:25;8.65;;;5.90;;
325;SDS011;150;52.352;14.058;2023-06-22T06:24:52;6.18;;;3.90;;
325;SDS011;150;52.352;14.058;2023-06-22T06:27:18;4.78;;;4.03;;
325;SDS011;150;52.352;14.058;2023-06-22T06:29:45;5.22;;;3.88;;
325;SDS011;150;52.352;14.058;2023-06-22T06:32:13;4.65;;;4.40;;
325;SDS011;150;52.352;14.058;2023-06-22T06:34:41;5.13;;;4.50;;
325;SDS011;150;52.352;14.058;2023-06-22T06:37:08;4.70;;;3.50;;
325;SDS011;150;52.352;14.058;2023-06-22T06:39:35;6.20;;;4.10;;
325;SDS011;150;52.352;14.058;2023-06-22T06:42:01;4.30;;;3.60;;
325;SDS011;150;52.352;14.058;2023-06-22T06:44:28;5.28;;;3.90;;
325;SDS011;150;52.352;14.058;2023-06-22T06:46:55;5.38;;;4.10;;
325;SDS011;150;52.352;14.058;2023-06-22T06:49:21;4.30;;;3.90;;
325;SDS011;150;52.352;14.058;2023-06-22T06:51:50;5.20;;;3.80;;
325;SDS011;150;52.352;14.058;2023-06-22T06:54:16;4.80;;;4.10;;
325;SDS011;150;52.352;14.058;2023-06-22T06:56:45;4.03;;;3.85;;
325;SDS011;150;52.352;14.058;2023-06-22T06:59:13;7.85;;;3.55;;
325;SDS011;150;52.352;14.058;2023-06-22T07:01:40;4.95;;;3.35;;
325;SDS011;150;52.352;14.058;2023-06-22T07:04:07;6.10;;;3.50;;
325;SDS011;150;52.352;14.058;2023-06-22T07:06:33;6.38;;;3.70;;
325;SDS011;150;52.352;14.058;2023-06-22T07:09:01;4.30;;;3.42;;
325;SDS011;150;52.352;14.058;2023-06-22T07:11:28;4.30;;;3.13;;
325;SDS011;150;52.352;14.058;2023-06-22T07:13:55;5.40;;;3.20;;
325;SDS011;150;52.352;14.058;2023-06-22T07:16:21;4.18;;;2.78;;
325;SDS011;150;52.352;14.058;2023-06-22T07:18:50;3.58;;;2.88;;
325;SDS011;150;52.352;14.058;2023-06-22T07:21:16;3.80;;;2.80;;
325;SDS011;150;52.352;14.058;2023-06-22T07:23:43;4.45;;;2.80;;
325;SDS011;150;52.352;14.058;2023-06-22T07:26:11;4.35;;;2.90;;
325;SDS011;150;52.352;14.058;2023-06-22T07:28:38;4.50;;;2.80;;
325;SDS011;150;52.352;14.058;2023-06-22T07:31:05;5.30;;;2.80;;
325;SDS011;150;52.352;14.058;2023-06-22T07:33:32;4.72;;;3.55;;
325;SDS011;150;52.352;14.058;2023-06-22T07:35:59;3.85;;;3.20;;
325;SDS011;150;52.352;14.058;2023-06-22T07:38:25;4.28;;;2.65;;
325;SDS011;150;52.352;14.058;2023-06-22T07:40:52;3.30;;;2.70;;
325;SDS011;150;52.352;14.058;2023-06-22T07:43:20;4.03;;;2.80;;
325;SDS011;150;52.352;14.058;2023-06-22T07:45:50;3.10;;;2.25;;
325;SDS011;150;52.352;14.058;2023-06-22T07:48:19;2.95;;;2.20;;
325;SDS011;150;52.352;14.058;2023-06-22T07:50:46;4.00;;;2.67;;
325;SDS011;150;52.352;14.058;2023-06-22T07:53:13;4.20;;;2.90;;
325;SDS011;150;52.352;14.058;2023-06-22T07:55:39;3.75;;;2.30;;
325;SDS011;150;52.352;14.058;2023-06-22T07:58:06;2.83;;;2.40;;
325;SDS011;150;52.352;14.058;2023-06-22T08:00:34;6.68;;;3.00;;
325;SDS011;150;52.352;14.058;2023-06-22T08:03:01;3.70;;;2.50;;
325;SDS011;150;52.352;14.058;2023-06-22T08:05:30;3.38;;;2.20;;
325;SDS011;150;52.352;14.058;2023-06-22T08:07:56;3.85;;;2.10;;
325;SDS011;150;52.352;14.058;2023-06-22T08:10:23;4.35;;;2.05;;
325;SDS011;150;52.352;14.058;2023-06-22T08:12:50;3.30;;;2.30;;
325;SDS011;150;52.352;14.058;2023-06-22T08:15:18;3.15;;;2.00;;
325;SDS011;150;52.352;14.058;2023-06-22T08:17:46;4.00;;;2.10;;
325;SDS011;150;52.352;14.058;2023-06-22T08:20:12;3.35;;;2.33;;
325;SDS011;150;52.352;14.058;2023-06-22T08:22:39;2.95;;;1.50;;
325;SDS011;150;52.352;14.058;2023-06-22T08:25:07;3.37;;;1.70;;
325;SDS011;150;52.352;14.058;2023-06-22T08:27:34;2.90;;;1.88;;
325;SDS011;150;52.352;14.058;2023-06-22T08:30:01;3.60;;;2.10;;
325;SDS011;150;52.352;14.058;2023-06-22T08:32:28;3.53;;;1.95;;
325;SDS011;150;52.352;14.058;2023-06-22T08:34:58;4.10;;;1.90;;
325;SDS011;150;52.352;14.058;2023-06-22T08:37:25;3.10;;;1.90;;
325;SDS011;150;52.352;14.058;2023-06-22T08:39:56;3.90;;;1.93;;
325;SDS011;150;52.352;14.058;2023-06-22T08:42:22;3.00;;;1.90;;
325;SDS011;150;52.352;14.058;2023-06-22T08:44:50;2.78;;;1.80;;
325;SDS011;150;52.352;14.058;2023-06-22T08:47:17;3.23;;;2.03;;
325;SDS011;150;52.352;14.058;2023-06-22T08:49:44;2.38;;;1.45;;
325;SDS011;150;52.352;14.058;2023-06-22T08:52:12;3.00;;;2.00;;
325;SDS011;150;52.352;14.058;2023-06-22T08:54:39;4.47;;;1.98;;
325;SDS011;150;52.352;14.058;2023-06-22T08:57:05;4.40;;;2.35;;
325;SDS011;150;52.352;14.058;2023-06-22T08:59:32;3.45;;;1.80;;
325;SDS011;150;52.352;14.058;2023-06-22T09:01:59;5.10;;;2.20;;
325;SDS011;150;52.352;14.058;2023-06-22T09:04:26;5.43;;;2.50;;
325;SDS011;150;52.352;14.058;2023-06-22T09:06:52;2.97;;;2.10;;
325;SDS011;150;52.352;14.058;2023-06-22T09:09:21;5.30;;;2.75;;
325;SDS011;150;52.352;14.058;2023-06-22T09:11:48;3.60;;;2.15;;
325;SDS011;150;52.352;14.058;2023-06-22T09:14:14;5.50;;;2.00;;
325;SDS011;150;52.352;14.058;2023-06-22T09:16:41;4.93;;;2.22;;
325;SDS011;150;52.352;14.058;2023-06-22T09:19:08;3.75;;;2.50;;
325;SDS011;150;52.352;14.058;2023-06-22T09:21:35;2.65;;;1.90;;
325;SDS011;150;52.352;14.058;2023-06-22T09:24:01;5.45;;;1.80;;
325;SDS011;150;52.352;14.058;2023-06-22T09:26:29;3.70;;;2.10;;
325;SDS011;150;52.352;14.058;2023-06-22T09:28:56;3.53;;;1.92;;
325;SDS011;150;52.352;14.058;2023-06-22T09:31:23;3.90;;;2.00;;
325;SDS011;150;52.352;14.058;2023-06-22T09:33:51;4.47;;;1.77;;
325;SDS011;150;52.352;14.058;2023-06-22T09:36:19;9.02;;;2.63;;
325;SDS011;150;52.352;14.058;2023-06-22T09:38:45;3.60;;;1.98;;
325;SDS011;150;52.352;14.058;2023-06-22T09:41:12;4.00;;;2.00;;
325;SDS011;150;52.352;14.058;2023-06-22T09:43:40;5.15;;;2.67;;
325;SDS011;150;52.352;14.058;2023-06-22T09:46:14;3.60;;;2.10;;
325;SDS011;150;52.352;14.058;2023-06-22T09:48:59;3.25;;;2.10;;
325;SDS011;150;52.352;14.058;2023-06-22T09:51:28;3.53;;;2.28;;
325;SDS011;150;52.352;14.058;2023-06-22T09:53:56;3.60;;;2.08;;
325;SDS011;150;52.352;14.058;2023-06-22T09:56:29;3.22;;;2.25;;
325;SDS011;150;52.352;14.058;2023-06-22T09:58:58;3.10;;;1.90;;
325;SDS011;150;52.352;14.058;2023-06-22T10:01:27;3.95;;;2.28;;
325;SDS011;150;52.352;14.058;2023-06-22T10:03:58;3.00;;;1.95;;
325;SDS011;150;52.352;14.058;2023-06-22T10:06:33;3.20;;;2.03;;
325;SDS011;150;52.352;14.058;2023-06-22T10:09:09;4.57;;;2.25;;
325;SDS011;150;52.352;14.058;2023-06-22T10:11:42;2.72;;;1.80;;
325;SDS011;150;52.352;14.058;2023-06-22T10:14:24;2.90;;;2.13;;
325;SDS011;150;52.352;14.058;2023-06-22T10:16:55;4.00;;;1.92;;
325;SDS011;150;52.352;14.058;2023-06-22T10:19:32;3.50;;;2.00;;
325;SDS011;150;52.352;14.058;2023-06-22T10:22:05;3.40;;;2.30;;
325;SDS011;150;52.352;14.058;2023-06-22T10:24:32;3.08;;;1.85;;
325;SDS011;150;52.352;14.058;2023-06-22T10:26:58;3.20;;;2.27;;
325;SDS011;150;52.352;14.058;2023-06-22T10:29:27;5.97;;;2.60;;
325;SDS011;150;52.352;14.058;2023-06-22T10:31:54;6.20;;;3.57;;
325;SDS011;150;52.352;14.058;2023-06-22T10:34:28;3.47;;;2.28;;
325;SDS011;150;52.352;14.058;2023-06-22T10:36:57;3.90;;;2.00;;
325;SDS011;150;52.352;14.058;2023-06-22T10:39:24;3.08;;;2.03;;
325;SDS011;150;52.352;14.058;2023-06-22T10:41:57;3.45;;;2.42;;
325;SDS011;150;52.352;14.058;2023-06-22T10:44:23;3.03;;;1.57;;
325;SDS011;150;52.352;14.058;2023-06-22T10:46:54;3.00;;;1.80;;
325;SDS011;150;52.352;14.058;2023-06-22T10:49:23;2.85;;;2.17;;
325;SDS011;150;52.352;14.058;2023-06-22T10:51:55;3.70;;;2.30;;
325;SDS011;150;52.352;14.058;2023-06-22T10:54:23;3.35;;;2.40;;
325;SDS011;150;52.352;14.058;2023-06-22T10:56:55;3.25;;;2.13;;
325;SDS011;150;52.352;14.058;2023-06-22T10:59:25;4.73;;;2.30;;
325;SDS011;150;52.352;14.058;2023-06-22T11:01:52;4.83;;;2.20;;
325;SDS011;150;52.352;14.058;2023-06-22T11:04:41;2.60;;;1.80;;
325;SDS011;150;52.352;14.058;2023-06-22T11:07:16;2.85;;;2.17;;
325;SDS011;150;52.352;14.058;2023-06-22T11:09:57;4.70;;;1.92;;
325;SDS011;150;52.352;14.058;2023-06-22T11:12:35;3.80;;;2.60;;
325;SDS011;150;52.352;14.058;2023-06-22T11:15:16;2.75;;;1.85;;
325;SDS011;150;52.352;14.058;2023-06-22T11:17:52;3.50;;;2.00;;
325;SDS011;150;52.352;14.058;2023-06-22T11:20:19;8.90;;;2.20;;
325;SDS011;150;52.352;14.058;2023-06-22T11:22:46;4.20;;;2.10;;
325;SDS011;150;52.352;14.058;2023-06-22T11:25:26;3.65;;;2.05;;
325;SDS011;150;52.352;14.058;2023-06-22T11:28:00;3.40;;;2.20;;
325;SDS011;150;52.352;14.058;2023-06-22T11:30:32;4.50;;;2.60;;
325;SDS011;150;52.352;14.058;2023-06-22T11:33:06;3.67;;;2.13;;
325;SDS011;150;52.352;14.058;2023-06-22T11:35:50;3.00;;;2.15;;
325;SDS011;150;52.352;14.058;2023-06-22T11:38:21;3.20;;;2.25;;
325;SDS011;150;52.352;14.058;2023-06-22T11:40:48;3.13;;;1.98;;
325;SDS011;150;52.352;14.058;2023-06-22T11:43:20;2.90;;;2.33;;
325;SDS011;150;52.352;14.058;2023-06-22T11:45:54;3.35;;;2.40;;
325;SDS011;150;52.352;14.058;2023-06-22T11:48:30;5.20;;;2.60;;
325;SDS011;150;52.352;14.058;2023-06-22T11:51:00;3.30;;;2.10;;
325;SDS011;150;52.352;14.058;2023-06-22T11:53:37;3.50;;;2.30;;
325;SDS011;150;52.352;14.058;2023-06-22T11:56:19;3.70;;;2.38;;
325;SDS011;150;52.352;14.058;2023-06-22T11:59:00;3.83;;;2.50;;
325;SDS011;150;52.352;14.058;2023-06-22T12:01:33;4.07;;;2.40;;
325;SDS011;150;52.352;14.058;2023-06-22T12:04:07;3.20;;;2.10;;
325;SDS011;150;52.352;14.058;2023-06-22T12:06:48;3.08;;;2.22;;
325;SDS011;150;52.352;14.058;2023-06-22T12:09:29;3.58;;;2.83;;
325;SDS011;150;52.352;14.058;2023-06-22T12:11:56;4.07;;;2.33;;
325;SDS011;150;52.352;14.058;2023-06-22T12:14:40;3.20;;;2.50;;
325;SDS011;150;52.352;14.058;2023-06-22T12:17:17;6.07;;;3.10;;
325;SDS011;150;52.352;14.058;2023-06-22T12:19:46;7.43;;;2.67;;
325;SDS011;150;52.352;14.058;2023-06-22T12:22:18;4.15;;;2.80;;
325;SDS011;150;52.352;14.058;2023-06-22T12:24:45;4.70;;;2.67;;
325;SDS011;150;52.352;14.058;2023-06-22T12:27:18;4.28;;;2.80;;
325;SDS011;150;52.352;14.058;2023-06-22T12:29:53;4.43;;;2.80;;
325;SDS011;150;52.352;14.058;2023-06-22T12:32:44;3.33;;;2.60;;
325;SDS011;150;52.352;14.058;2023-06-22T12:35:19;3.20;;;2.50;;
325;SDS011;150;52.352;14.058;2023-06-22T12:37:52;3.55;;;2.83;;
325;SDS011;150;52.352;14.058;2023-06-22T12:40:34;5.90;;;2.97;;
325;SDS011;150;52.352;14.058;2023-06-22T12:43:11;3.10;;;2.38;;
325;SDS011;150;52.352;14.058;2023-06-22T12:45:59;3.20;;;2.70;;
325;SDS011;150;52.352;14.058;2023-06-22T12:48:51;4.05;;;3.13;;
325;SDS011;150;52.352;14.058;2023-06-22T12:51:30;4.30;;;3.05;;
325;SDS011;150;52.352;14.058;2023-06-22T12:54:05;3.50;;;2.80;;
325;SDS011;150;52.352;14.058;2023-06-22T12:56:38;3.45;;;2.67;;
325;SDS011;150;52.352;14.058;2023-06-22T12:59:17;4.13;;;2.60;;
325;SDS011;150;52.352;14.058;2023-06-22T13:01:47;3.50;;;2.80;;
325;SDS011;150;52.352;14.058;2023-06-22T13:04:27;3.90;;;2.87;;
325;SDS011;150;52.352;14.058;2023-06-22T13:07:30;3.00;;;2.60;;
325;SDS011;150;52.352;14.058;2023-06-22T13:09:57;3.90;;;2.78;;
325;SDS011;150;52.352;14.058;2023-06-22T13:12:38;5.00;;;3.20;;
325;SDS011;150;52.352;14.058;2023-06-22T13:15:08;3.97;;;3.03;;
325;SDS011;150;52.352;14.058;2023-06-22T13:18:02;3.67;;;2.80;;
325;SDS011;150;52.352;14.058;2023-06-22T13:20:39;4.30;;;2.80;;
325;SDS011;150;52.352;14.058;2023-06-22T13:23:14;3.63;;;2.50;;
325;SDS011;150;52.352;14.058;2023-06-22T13:25:45;4.40;;;2.95;;
325;SDS011;150;52.352;14.058;2023-06-22T13:28:36;3.70;;;2.83;;
325;SDS011;150;52.352;14.058;2023-06-22T13:31:16;4.22;;;3.33;;
325;SDS011;150;52.352;14.058;2023-06-22T13:33:57;5.30;;;2.83;;
325;SDS011;150;52.352;14.058;2023-06-22T13:36:39;4.22;;;2.90;;
325;SDS011;150;52.352;14.058;2023-06-22T13:39:17;4.57;;;3.80;;
325;SDS011;150;52.352;14.058;2023-06-22T13:41:51;4.20;;;3.40;;
325;SDS011;150;52.352;14.058;2023-06-22T13:44:52;5.60;;;3.50;;
325;SDS011;150;52.352;14.058;2023-06-22T13:47:21;4.30;;;3.10;;
325;SDS011;150;52.352;14.058;2023-06-22T13:50:07;4.72;;;3.17;;
325;SDS011;150;52.352;14.058;2023-06-22T13:52:40;4.20;;;3.30;;
325;SDS011;150;52.352;14.058;2023-06-22T13:58:00;4.87;;;3.30;;
325;SDS011;150;52.352;14.058;2023-06-22T14:00:49;4.32;;;3.25;;
325;SDS011;150;52.352;14.058;2023-06-22T14:03:33;5.60;;;3.60;;
325;SDS011;150;52.352;14.058;2023-06-22T14:06:22;3.60;;;2.83;;
325;SDS011;150;52.352;14.058;2023-06-22T14:08:50;4.38;;;3.50;;
325;SDS011;150;52.352;14.058;2023-06-22T14:11:29;4.25;;;3.33;;
325;SDS011;150;52.352;14.058;2023-06-22T14:14:05;3.85;;;3.10;;
325;SDS011;150;52.352;14.058;2023-06-22T14:16:41;4.40;;;3.08;;
325;SDS011;150;52.352;14.058;2023-06-22T14:19:36;4.88;;;3.60;;
325;SDS011;150;52.352;14.058;2023-06-22T14:22:04;4.20;;;3.40;;
325;SDS011;150;52.352;14.058;2023-06-22T14:24:37;5.00;;;2.97;;
325;SDS011;150;52.352;14.058;2023-06-22T14:27:06;3.20;;;2.70;;
325;SDS011;150;52.352;14.058;2023-06-22T14:29:36;4.40;;;3.22;;
325;SDS011;150;52.352;14.058;2023-06-22T14:32:18;3.63;;;2.90;;
325;SDS011;150;52.352;14.058;2023-06-22T14:34:49;4.30;;;3.80;;
325;SDS011;150;52.352;14.058;2023-06-22T14:37:18;4.45;;;3.50;;
325;SDS011;150;52.352;14.058;2023-06-22T14:39:47;4.63;;;3.50;;
325;SDS011;150;52.352;14.058;2023-06-22T14:42:31;5.35;;;3.30;;
325;SDS011;150;52.352;14.058;2023-06-22T14:45:00;4.28;;;3.03;;
325;SDS011;150;52.352;14.058;2023-06-22T14:47:31;4.43;;;3.38;;
325;SDS011;150;52.352;14.058;2023-06-22T14:49:57;5.13;;;3.90;;
325;SDS011;150;52.352;14.058;2023-06-22T14:52:25;4.13;;;3.00;;
325;SDS011;150;52.352;14.058;2023-06-22T14:54:52;5.22;;;3.25;;
325;SDS011;150;52.352;14.058;2023-06-22T14:57:19;4.28;;;3.00;;
325;SDS011;150;52.352;14.058;2023-06-22T14:59:49;4.20;;;3.10;;
325;SDS011;150;52.352;14.058;2023-06-22T15:02:16;5.05;;;3.20;;
325;SDS011;150;52.352;14.058;2023-06-22T15:04:43;4.47;;;3.53;;
325;SDS011;150;52.352;14.058;2023-06-22T15:07:09;4.03;;;3.45;;
325;SDS011;150;52.352;14.058;2023-06-22T15:09:39;3.97;;;3.17;;
325;SDS011;150;52.352;14.058;2023-06-22T15:12:07;4.40;;;3.50;;
325;SDS011;150;52.352;14.058;2023-06-22T15:25:12;4.88;;;3.50;;
325;SDS011;150;52.352;14.058;2023-06-22T15:35:59;4.17;;;3.30;;
325;SDS011;150;52.352;14.058;2023-06-22T15:41:59;3.83;;;3.33;;
325;SDS011;150;52.352;14.058;2023-06-22T15:54:16;4.63;;;3.60;;
325;SDS011;150;52.352;14.058;2023-06-22T15:57:49;5.40;;;3.70;;
325;SDS011;150;52.352;14.058;2023-06-22T16:00:47;4.00;;;3.50;;
325;SDS011;150;52.352;14.058;2023-06-22T16:03:58;4.60;;;3.33;;
325;SDS011;150;52.352;14.058;2023-06-22T16:18:45;3.33;;;2.65;;
325;SDS011;150;52.352;14.058;2023-06-22T16:29:56;4.55;;;3.60;;
325;SDS011;150;52.352;14.058;2023-06-22T16:33:27;3.83;;;3.50;;
325;SDS011;150;52.352;14.058;2023-06-22T16:43:57;5.88;;;3.30;;
325;SDS011;150;52.352;14.058;2023-06-22T16:47:21;5.28;;;3.40;;
325;SDS011;150;52.352;14.058;2023-06-22T16:49:55;5.75;;;3.70;;
325;SDS011;150;52.352;14.058;2023-06-22T16:53:10;4.13;;;3.53;;